sensor_id;sensor_type;location;lat;lon;timestamp;P1;durP1;ratioP1;P2;durP2;ratioP2
43807;SDS011;29438;50.664;10.098;2023-01-29T00:01:16;5.25;;;2.40;;
43807;SDS011;29438;50.664;10.098;2023-01-29T00:03:42;5.10;;;2.38;;
43807;SDS011;29438;50.664;10.098;2023-01-29T00:06:07;5.60;;;2.05;;
43807;SDS011;29438;50.664;10.098;2023-01-29T00:08:34;6.20;;;2.33;;
43807;SDS011;29438;50.664;10.098;2023-01-29T00:11:04;5.13;;;1.92;;
43807;SDS011;29438;50.664;10.098;2023-01-29T00:13:31;5.05;;;2.30;;
43807;SDS011;29438;50.664;10.098;2023-01-29T00:15:58;5.13;;;2.40;;
43807;SDS011;29438;50.664;10.098;2023-01-29T00:18:24;5.63;;;2.53;;
43807;SDS011;29438;50.664;10.098;2023-01-29T00:20:51;6.68;;;2.22;;
43807;SDS011;29438;50.664;10.098;2023-01-29T00:23:17;4.75;;;2.28;;
43807;SDS011;29438;50.664;10.098;2023-01-29T00:25:43;7.60;;;2.60;;
43807;SDS011;29438;50.664;10.098;2023-01-29T00:28:09;7.18;;;2.40;;
43807;SDS011;29438;50.664;10.098;2023-01-29T00:30:35;6.53;;;2.70;;
43807;SDS011;29438;50.664;10.098;2023-01-29T00:33:01;3.92;;;1.80;;
43807;SDS011;29438;50.664;10.098;2023-01-29T00:35:27;6.13;;;2.50;;
43807;SDS011;29438;50.664;10.098;2023-01-29T00:37:56;6.15;;;2.25;;
43807;SDS011;29438;50.664;10.098;2023-01-29T00:40:23;7.63;;;3.08;;
43807;SDS011;29438;50.664;10.098;2023-01-29T00:42:49;6.35;;;2.80;;
43807;SDS011;29438;50.664;10.098;2023-01-29T00:45:33;7.03;;;2.70;;
43807;SDS011;29438;50.664;10.098;2023-01-29T00:48:02;8.07;;;2.17;;
43807;SDS011;29438;50.664;10.098;2023-01-29T00:50:29;9.95;;;3.35;;
43807;SDS011;29438;50.664;10.098;2023-01-29T00:52:54;4.38;;;2.28;;
43807;SDS011;29438;50.664;10.098;2023-01-29T00:55:20;8.07;;;3.25;;
43807;SDS011;29438;50.664;10.098;2023-01-29T00:57:46;7.85;;;2.97;;
43807;SDS011;29438;50.664;10.098;2023-01-29T01:00:13;6.38;;;2.38;;
43807;SDS011;29438;50.664;10.098;2023-01-29T01:02:40;8.55;;;3.28;;
43807;SDS011;29438;50.664;10.098;2023-01-29T01:05:25;7.63;;;3.28;;
43807;SDS011;29438;50.664;10.098;2023-01-29T01:07:51;5.95;;;2.88;;
43807;SDS011;29438;50.664;10.098;2023-01-29T01:10:19;6.22;;;2.78;;
43807;SDS011;29438;50.664;10.098;2023-01-29T01:12:52;9.45;;;3.45;;
43807;SDS011;29438;50.664;10.098;2023-01-29T01:15:20;8.60;;;3.33;;
43807;SDS011;29438;50.664;10.098;2023-01-29T01:17:50;8.13;;;3.03;;
43807;SDS011;29438;50.664;10.098;2023-01-29T01:20:19;9.75;;;3.22;;
43807;SDS011;29438;50.664;10.098;2023-01-29T01:22:46;7.28;;;3.25;;
43807;SDS011;29438;50.664;10.098;2023-01-29T01:25:11;7.75;;;3.38;;
43807;SDS011;29438;50.664;10.098;2023-01-29T01:27:37;7.15;;;3.05;;
43807;SDS011;29438;50.664;10.098;2023-01-29T01:30:06;6.15;;;2.83;;
43807;SDS011;29438;50.664;10.098;2023-01-29T01:32:36;6.15;;;2.40;;
43807;SDS011;29438;50.664;10.098;2023-01-29T01:35:02;6.18;;;2.63;;
43807;SDS011;29438;50.664;10.098;2023-01-29T01:37:28;6.78;;;2.97;;
43807;SDS011;29438;50.664;10.098;2023-01-29T01:39:53;6.93;;;2.72;;
43807;SDS011;29438;50.664;10.098;2023-01-29T01:42:21;7.95;;;3.17;;
43807;SDS011;29438;50.664;10.098;2023-01-29T01:44:54;8.05;;;3.22;;
43807;SDS011;29438;50.664;10.098;2023-01-29T01:47:46;6.60;;;2.25;;
43807;SDS011;29438;50.664;10.098;2023-01-29T01:50:17;7.65;;;3.50;;
43807;SDS011;29438;50.664;10.098;2023-01-29T01:52:51;5.70;;;2.80;;
43807;SDS011;29438;50.664;10.098;2023-01-29T01:55:20;5.45;;;2.17;;
43807;SDS011;29438;50.664;10.098;2023-01-29T01:57:50;4.90;;;2.30;;
43807;SDS011;29438;50.664;10.098;2023-01-29T02:00:19;7.50;;;3.08;;
43807;SDS011;29438;50.664;10.098;2023-01-29T02:02:45;7.30;;;2.78;;
43807;SDS011;29438;50.664;10.098;2023-01-29T02:05:32;8.52;;;3.50;;
43807;SDS011;29438;50.664;10.098;2023-01-29T02:08:18;7.90;;;3.13;;
43807;SDS011;29438;50.664;10.098;2023-01-29T02:11:10;7.35;;;2.80;;
43807;SDS011;29438;50.664;10.098;2023-01-29T02:13:37;7.90;;;3.33;;
43807;SDS011;29438;50.664;10.098;2023-01-29T02:16:02;6.95;;;2.55;;
43807;SDS011;29438;50.664;10.098;2023-01-29T02:18:28;6.05;;;2.72;;
43807;SDS011;29438;50.664;10.098;2023-01-29T02:23:42;7.55;;;2.70;;
43807;SDS011;29438;50.664;10.098;2023-01-29T02:26:35;4.45;;;2.13;;
43807;SDS011;29438;50.664;10.098;2023-01-29T02:29:27;5.82;;;3.03;;
43807;SDS011;29438;50.664;10.098;2023-01-29T02:32:04;6.50;;;2.95;;
43807;SDS011;29438;50.664;10.098;2023-01-29T02:34:52;7.10;;;2.72;;
43807;SDS011;29438;50.664;10.098;2023-01-29T02:40:39;6.80;;;3.38;;
43807;SDS011;29438;50.664;10.098;2023-01-29T02:43:07;7.88;;;2.63;;
43807;SDS011;29438;50.664;10.098;2023-01-29T02:46:02;7.55;;;2.97;;
43807;SDS011;29438;50.664;10.098;2023-01-29T02:48:47;6.38;;;3.15;;
43807;SDS011;29438;50.664;10.098;2023-01-29T02:51:33;6.65;;;2.47;;
43807;SDS011;29438;50.664;10.098;2023-01-29T02:54:13;7.53;;;2.93;;
43807;SDS011;29438;50.664;10.098;2023-01-29T02:56:54;6.85;;;3.10;;
43807;SDS011;29438;50.664;10.098;2023-01-29T02:59:24;11.02;;;3.35;;
43807;SDS011;29438;50.664;10.098;2023-01-29T03:02:16;7.68;;;2.47;;
43807;SDS011;29438;50.664;10.098;2023-01-29T03:04:49;7.18;;;3.17;;
43807;SDS011;29438;50.664;10.098;2023-01-29T03:07:20;6.85;;;2.67;;
43807;SDS011;29438;50.664;10.098;2023-01-29T03:10:11;7.78;;;2.65;;
43807;SDS011;29438;50.664;10.098;2023-01-29T03:12:50;9.77;;;3.08;;
43807;SDS011;29438;50.664;10.098;2023-01-29T03:15:25;6.68;;;3.10;;
43807;SDS011;29438;50.664;10.098;2023-01-29T03:17:59;8.73;;;3.13;;
43807;SDS011;29438;50.664;10.098;2023-01-29T03:20:48;7.65;;;3.75;;
43807;SDS011;29438;50.664;10.098;2023-01-29T03:23:19;7.75;;;3.13;;
43807;SDS011;29438;50.664;10.098;2023-01-29T03:25:51;5.82;;;2.55;;
43807;SDS011;29438;50.664;10.098;2023-01-29T03:28:40;7.05;;;2.60;;
43807;SDS011;29438;50.664;10.098;2023-01-29T03:31:26;9.25;;;3.05;;
43807;SDS011;29438;50.664;10.098;2023-01-29T03:34:13;6.60;;;2.72;;
43807;SDS011;29438;50.664;10.098;2023-01-29T03:36:52;6.80;;;2.85;;
43807;SDS011;29438;50.664;10.098;2023-01-29T03:39:22;9.48;;;2.78;;
43807;SDS011;29438;50.664;10.098;2023-01-29T03:41:56;7.35;;;3.10;;
43807;SDS011;29438;50.664;10.098;2023-01-29T03:44:33;10.07;;;3.45;;
43807;SDS011;29438;50.664;10.098;2023-01-29T03:47:13;10.25;;;2.58;;
43807;SDS011;29438;50.664;10.098;2023-01-29T03:49:53;4.85;;;2.47;;
43807;SDS011;29438;50.664;10.098;2023-01-29T03:52:28;6.25;;;3.17;;
43807;SDS011;29438;50.664;10.098;2023-01-29T03:55:14;8.32;;;3.10;;
43807;SDS011;29438;50.664;10.098;2023-01-29T04:05:46;6.47;;;2.95;;
43807;SDS011;29438;50.664;10.098;2023-01-29T04:08:19;5.07;;;2.42;;
43807;SDS011;29438;50.664;10.098;2023-01-29T04:10:50;7.45;;;3.20;;
43807;SDS011;29438;50.664;10.098;2023-01-29T04:13:18;6.50;;;2.83;;
43807;SDS011;29438;50.664;10.098;2023-01-29T04:15:46;7.30;;;2.92;;
43807;SDS011;29438;50.664;10.098;2023-01-29T04:18:17;7.68;;;3.33;;
43807;SDS011;29438;50.664;10.098;2023-01-29T04:20:42;4.32;;;2.08;;
43807;SDS011;29438;50.664;10.098;2023-01-29T04:23:18;4.75;;;2.55;;
43807;SDS011;29438;50.664;10.098;2023-01-29T04:28:58;5.70;;;2.53;;
43807;SDS011;29438;50.664;10.098;2023-01-29T04:34:11;5.78;;;1.98;;
43807;SDS011;29438;50.664;10.098;2023-01-29T04:36:51;6.53;;;2.45;;
43807;SDS011;29438;50.664;10.098;2023-01-29T04:39:21;4.27;;;2.00;;
43807;SDS011;29438;50.664;10.098;2023-01-29T04:50:13;4.53;;;1.92;;
43807;SDS011;29438;50.664;10.098;2023-01-29T04:52:56;3.08;;;1.63;;
43807;SDS011;29438;50.664;10.098;2023-01-29T04:55:41;7.38;;;2.80;;
43807;SDS011;29438;50.664;10.098;2023-01-29T04:58:17;5.72;;;2.20;;
43807;SDS011;29438;50.664;10.098;2023-01-29T05:01:06;7.30;;;3.10;;
43807;SDS011;29438;50.664;10.098;2023-01-29T05:03:37;6.65;;;2.70;;
43807;SDS011;29438;50.664;10.098;2023-01-29T05:06:06;8.80;;;2.30;;
43807;SDS011;29438;50.664;10.098;2023-01-29T05:08:34;6.63;;;2.35;;
43807;SDS011;29438;50.664;10.098;2023-01-29T05:11:02;6.30;;;2.67;;
43807;SDS011;29438;50.664;10.098;2023-01-29T05:13:29;8.82;;;3.05;;
43807;SDS011;29438;50.664;10.098;2023-01-29T05:16:00;12.23;;;3.90;;
43807;SDS011;29438;50.664;10.098;2023-01-29T05:18:30;6.22;;;2.78;;
43807;SDS011;29438;50.664;10.098;2023-01-29T05:20:56;11.18;;;3.97;;
43807;SDS011;29438;50.664;10.098;2023-01-29T05:23:23;7.60;;;3.42;;
43807;SDS011;29438;50.664;10.098;2023-01-29T05:25:49;7.32;;;3.05;;
43807;SDS011;29438;50.664;10.098;2023-01-29T05:28:16;4.85;;;2.17;;
43807;SDS011;29438;50.664;10.098;2023-01-29T05:30:42;6.65;;;2.95;;
43807;SDS011;29438;50.664;10.098;2023-01-29T05:33:12;6.70;;;2.50;;
43807;SDS011;29438;50.664;10.098;2023-01-29T05:35:44;7.32;;;2.65;;
43807;SDS011;29438;50.664;10.098;2023-01-29T05:38:10;3.63;;;2.03;;
43807;SDS011;29438;50.664;10.098;2023-01-29T05:40:35;10.93;;;3.63;;
43807;SDS011;29438;50.664;10.098;2023-01-29T05:43:01;8.52;;;3.03;;
43807;SDS011;29438;50.664;10.098;2023-01-29T05:45:27;8.35;;;2.65;;
43807;SDS011;29438;50.664;10.098;2023-01-29T05:47:56;6.40;;;2.92;;
43807;SDS011;29438;50.664;10.098;2023-01-29T05:50:23;8.50;;;3.25;;
43807;SDS011;29438;50.664;10.098;2023-01-29T05:52:54;8.73;;;3.45;;
43807;SDS011;29438;50.664;10.098;2023-01-29T05:55:21;10.13;;;3.67;;
43807;SDS011;29438;50.664;10.098;2023-01-29T05:57:46;7.95;;;3.67;;
43807;SDS011;29438;50.664;10.098;2023-01-29T06:00:12;8.55;;;3.22;;
43807;SDS011;29438;50.664;10.098;2023-01-29T06:02:38;10.52;;;3.85;;
43807;SDS011;29438;50.664;10.098;2023-01-29T06:05:04;11.50;;;3.60;;
43807;SDS011;29438;50.664;10.098;2023-01-29T06:07:30;12.00;;;4.07;;
43807;SDS011;29438;50.664;10.098;2023-01-29T06:09:55;8.32;;;3.05;;
43807;SDS011;29438;50.664;10.098;2023-01-29T06:12:21;8.45;;;3.17;;
43807;SDS011;29438;50.664;10.098;2023-01-29T06:14:46;10.25;;;3.70;;
43807;SDS011;29438;50.664;10.098;2023-01-29T06:17:12;10.80;;;3.63;;
43807;SDS011;29438;50.664;10.098;2023-01-29T06:19:37;10.38;;;3.58;;
43807;SDS011;29438;50.664;10.098;2023-01-29T06:22:03;10.05;;;3.30;;
43807;SDS011;29438;50.664;10.098;2023-01-29T06:24:28;12.40;;;4.75;;
43807;SDS011;29438;50.664;10.098;2023-01-29T06:26:54;8.35;;;4.13;;
43807;SDS011;29438;50.664;10.098;2023-01-29T06:29:19;12.88;;;4.40;;
43807;SDS011;29438;50.664;10.098;2023-01-29T06:31:45;11.32;;;4.63;;
43807;SDS011;29438;50.664;10.098;2023-01-29T06:34:10;9.88;;;4.15;;
43807;SDS011;29438;50.664;10.098;2023-01-29T06:36:36;10.68;;;3.67;;
43807;SDS011;29438;50.664;10.098;2023-01-29T06:39:02;5.05;;;2.50;;
43807;SDS011;29438;50.664;10.098;2023-01-29T06:41:28;9.43;;;3.42;;
43807;SDS011;29438;50.664;10.098;2023-01-29T06:43:53;12.05;;;4.95;;
43807;SDS011;29438;50.664;10.098;2023-01-29T06:46:19;11.70;;;3.85;;
43807;SDS011;29438;50.664;10.098;2023-01-29T06:48:44;11.85;;;3.90;;
43807;SDS011;29438;50.664;10.098;2023-01-29T06:51:10;9.00;;;3.13;;
43807;SDS011;29438;50.664;10.098;2023-01-29T06:53:36;9.10;;;3.70;;
43807;SDS011;29438;50.664;10.098;2023-01-29T06:56:03;12.35;;;4.63;;
43807;SDS011;29438;50.664;10.098;2023-01-29T06:58:29;8.70;;;3.67;;
43807;SDS011;29438;50.664;10.098;2023-01-29T07:01:04;6.45;;;2.72;;
43807;SDS011;29438;50.664;10.098;2023-01-29T07:03:31;11.20;;;3.58;;
43807;SDS011;29438;50.664;10.098;2023-01-29T07:05:57;7.88;;;3.20;;
43807;SDS011;29438;50.664;10.098;2023-01-29T07:08:22;8.05;;;3.90;;
43807;SDS011;29438;50.664;10.098;2023-01-29T07:10:48;13.57;;;4.28;;
43807;SDS011;29438;50.664;10.098;2023-01-29T07:13:14;10.70;;;4.80;;
43807;SDS011;29438;50.664;10.098;2023-01-29T07:15:40;17.02;;;5.75;;
43807;SDS011;29438;50.664;10.098;2023-01-29T07:18:05;15.98;;;6.72;;
43807;SDS011;29438;50.664;10.098;2023-01-29T07:20:36;16.08;;;6.90;;
43807;SDS011;29438;50.664;10.098;2023-01-29T07:23:03;17.48;;;5.88;;
43807;SDS011;29438;50.664;10.098;2023-01-29T07:25:29;15.35;;;7.00;;
43807;SDS011;29438;50.664;10.098;2023-01-29T07:27:54;14.45;;;5.43;;
43807;SDS011;29438;50.664;10.098;2023-01-29T07:30:20;14.27;;;5.13;;
43807;SDS011;29438;50.664;10.098;2023-01-29T07:32:46;10.90;;;3.90;;
43807;SDS011;29438;50.664;10.098;2023-01-29T07:35:11;16.05;;;5.07;;
43807;SDS011;29438;50.664;10.098;2023-01-29T07:37:37;11.85;;;4.57;;
43807;SDS011;29438;50.664;10.098;2023-01-29T07:40:02;12.10;;;4.60;;
43807;SDS011;29438;50.664;10.098;2023-01-29T07:42:34;7.88;;;4.03;;
43807;SDS011;29438;50.664;10.098;2023-01-29T07:44:59;14.65;;;5.80;;
43807;SDS011;29438;50.664;10.098;2023-01-29T07:47:25;14.20;;;5.55;;
43807;SDS011;29438;50.664;10.098;2023-01-29T07:49:50;23.08;;;8.38;;
43807;SDS011;29438;50.664;10.098;2023-01-29T07:52:16;24.35;;;9.13;;
43807;SDS011;29438;50.664;10.098;2023-01-29T07:54:42;16.98;;;7.78;;
43807;SDS011;29438;50.664;10.098;2023-01-29T07:57:08;27.42;;;10.70;;
43807;SDS011;29438;50.664;10.098;2023-01-29T07:59:33;16.30;;;7.00;;
43807;SDS011;29438;50.664;10.098;2023-01-29T08:01:59;14.15;;;5.97;;
43807;SDS011;29438;50.664;10.098;2023-01-29T08:04:24;16.73;;;6.53;;
43807;SDS011;29438;50.664;10.098;2023-01-29T08:06:50;22.17;;;6.28;;
43807;SDS011;29438;50.664;10.098;2023-01-29T08:09:15;13.75;;;5.63;;
43807;SDS011;29438;50.664;10.098;2023-01-29T08:11:41;15.15;;;4.85;;
43807;SDS011;29438;50.664;10.098;2023-01-29T08:14:06;16.02;;;5.95;;
43807;SDS011;29438;50.664;10.098;2023-01-29T08:16:33;14.00;;;6.18;;
43807;SDS011;29438;50.664;10.098;2023-01-29T08:19:00;16.38;;;7.15;;
43807;SDS011;29438;50.664;10.098;2023-01-29T08:21:26;12.20;;;4.53;;
43807;SDS011;29438;50.664;10.098;2023-01-29T08:23:51;12.10;;;4.40;;
43807;SDS011;29438;50.664;10.098;2023-01-29T08:26:17;13.45;;;5.53;;
43807;SDS011;29438;50.664;10.098;2023-01-29T08:28:42;14.38;;;5.40;;
43807;SDS011;29438;50.664;10.098;2023-01-29T08:31:12;18.63;;;7.55;;
43807;SDS011;29438;50.664;10.098;2023-01-29T08:33:41;15.47;;;5.80;;
43807;SDS011;29438;50.664;10.098;2023-01-29T08:36:07;13.35;;;5.22;;
43807;SDS011;29438;50.664;10.098;2023-01-29T08:38:33;11.20;;;4.90;;
43807;SDS011;29438;50.664;10.098;2023-01-29T08:40:59;10.32;;;4.47;;
43807;SDS011;29438;50.664;10.098;2023-01-29T08:43:24;14.02;;;4.70;;
43807;SDS011;29438;50.664;10.098;2023-01-29T08:45:50;12.82;;;4.85;;
43807;SDS011;29438;50.664;10.098;2023-01-29T08:48:16;11.70;;;4.40;;
43807;SDS011;29438;50.664;10.098;2023-01-29T08:50:41;22.17;;;6.65;;
43807;SDS011;29438;50.664;10.098;2023-01-29T08:53:07;16.40;;;5.25;;
43807;SDS011;29438;50.664;10.098;2023-01-29T08:55:37;18.52;;;7.05;;
43807;SDS011;29438;50.664;10.098;2023-01-29T08:58:05;11.70;;;4.22;;
43807;SDS011;29438;50.664;10.098;2023-01-29T09:00:34;13.20;;;4.68;;
43807;SDS011;29438;50.664;10.098;2023-01-29T09:03:00;12.93;;;4.78;;
43807;SDS011;29438;50.664;10.098;2023-01-29T09:05:27;14.50;;;6.35;;
43807;SDS011;29438;50.664;10.098;2023-01-29T09:07:53;13.63;;;5.18;;
43807;SDS011;29438;50.664;10.098;2023-01-29T09:10:20;11.10;;;4.68;;
43807;SDS011;29438;50.664;10.098;2023-01-29T09:12:45;12.18;;;4.28;;
43807;SDS011;29438;50.664;10.098;2023-01-29T09:15:11;12.30;;;4.75;;
43807;SDS011;29438;50.664;10.098;2023-01-29T09:17:36;14.05;;;5.45;;
43807;SDS011;29438;50.664;10.098;2023-01-29T09:20:02;17.67;;;5.68;;
43807;SDS011;29438;50.664;10.098;2023-01-29T09:22:30;11.75;;;4.70;;
43807;SDS011;29438;50.664;10.098;2023-01-29T09:24:56;13.10;;;5.25;;
43807;SDS011;29438;50.664;10.098;2023-01-29T09:27:24;12.60;;;4.75;;
43807;SDS011;29438;50.664;10.098;2023-01-29T09:29:49;13.05;;;4.50;;
43807;SDS011;29438;50.664;10.098;2023-01-29T09:32:15;11.70;;;4.32;;
43807;SDS011;29438;50.664;10.098;2023-01-29T09:34:40;14.95;;;4.63;;
43807;SDS011;29438;50.664;10.098;2023-01-29T09:37:06;11.68;;;4.60;;
43807;SDS011;29438;50.664;10.098;2023-01-29T09:39:31;11.20;;;4.38;;
43807;SDS011;29438;50.664;10.098;2023-01-29T09:42:08;9.90;;;3.67;;
43807;SDS011;29438;50.664;10.098;2023-01-29T09:47:37;14.07;;;5.43;;
43807;SDS011;29438;50.664;10.098;2023-01-29T09:50:22;11.65;;;5.43;;
43807;SDS011;29438;50.664;10.098;2023-01-29T09:52:54;17.20;;;6.13;;
43807;SDS011;29438;50.664;10.098;2023-01-29T09:55:45;14.95;;;5.75;;
43807;SDS011;29438;50.664;10.098;2023-01-29T09:58:19;11.65;;;5.20;;
43807;SDS011;29438;50.664;10.098;2023-01-29T10:00:59;12.40;;;4.47;;
43807;SDS011;29438;50.664;10.098;2023-01-29T10:18:31;13.95;;;4.95;;
43807;SDS011;29438;50.664;10.098;2023-01-29T10:24:12;12.60;;;5.03;;
43807;SDS011;29438;50.664;10.098;2023-01-29T10:26:48;14.32;;;5.95;;
43807;SDS011;29438;50.664;10.098;2023-01-29T10:29:17;16.02;;;5.35;;
43807;SDS011;29438;50.664;10.098;2023-01-29T10:31:43;12.52;;;5.47;;
43807;SDS011;29438;50.664;10.098;2023-01-29T10:34:13;11.63;;;4.63;;
43807;SDS011;29438;50.664;10.098;2023-01-29T10:36:42;13.13;;;4.60;;
43807;SDS011;29438;50.664;10.098;2023-01-29T10:39:19;13.40;;;4.63;;
43807;SDS011;29438;50.664;10.098;2023-01-29T10:42:03;14.50;;;5.28;;
43807;SDS011;29438;50.664;10.098;2023-01-29T11:00:43;13.40;;;4.78;;
43807;SDS011;29438;50.664;10.098;2023-01-29T11:05:46;11.50;;;4.60;;
43807;SDS011;29438;50.664;10.098;2023-01-29T11:08:30;10.02;;;4.05;;
43807;SDS011;29438;50.664;10.098;2023-01-29T11:11:16;12.07;;;4.63;;
43807;SDS011;29438;50.664;10.098;2023-01-29T11:14:02;12.07;;;4.32;;
43807;SDS011;29438;50.664;10.098;2023-01-29T11:16:43;11.57;;;4.28;;
43807;SDS011;29438;50.664;10.098;2023-01-29T11:19:10;13.95;;;4.40;;
43807;SDS011;29438;50.664;10.098;2023-01-29T11:21:50;12.23;;;4.82;;
43807;SDS011;29438;50.664;10.098;2023-01-29T11:24:23;12.68;;;5.20;;
43807;SDS011;29438;50.664;10.098;2023-01-29T11:26:51;15.45;;;6.50;;
43807;SDS011;29438;50.664;10.098;2023-01-29T11:32:06;11.68;;;4.95;;
43807;SDS011;29438;50.664;10.098;2023-01-29T11:34:54;14.07;;;5.68;;
43807;SDS011;29438;50.664;10.098;2023-01-29T11:37:20;13.98;;;5.53;;
43807;SDS011;29438;50.664;10.098;2023-01-29T11:39:46;10.75;;;4.45;;
43807;SDS011;29438;50.664;10.098;2023-01-29T11:42:18;14.75;;;5.55;;
43807;SDS011;29438;50.664;10.098;2023-01-29T11:44:44;9.85;;;4.50;;
43807;SDS011;29438;50.664;10.098;2023-01-29T11:47:11;15.32;;;5.20;;
43807;SDS011;29438;50.664;10.098;2023-01-29T11:49:43;12.55;;;4.60;;
43807;SDS011;29438;50.664;10.098;2023-01-29T11:52:11;12.70;;;4.80;;
43807;SDS011;29438;50.664;10.098;2023-01-29T11:54:44;12.88;;;5.60;;
43807;SDS011;29438;50.664;10.098;2023-01-29T11:59:52;10.70;;;4.13;;
43807;SDS011;29438;50.664;10.098;2023-01-29T12:02:26;14.00;;;6.45;;
43807;SDS011;29438;50.664;10.098;2023-01-29T12:05:20;14.35;;;4.82;;
43807;SDS011;29438;50.664;10.098;2023-01-29T12:07:50;13.50;;;5.05;;
43807;SDS011;29438;50.664;10.098;2023-01-29T12:12:52;12.30;;;4.68;;
43807;SDS011;29438;50.664;10.098;2023-01-29T12:15:34;14.25;;;5.05;;
43807;SDS011;29438;50.664;10.098;2023-01-29T12:18:47;11.55;;;4.78;;
43807;SDS011;29438;50.664;10.098;2023-01-29T12:20:54;13.27;;;4.95;;
43807;SDS011;29438;50.664;10.098;2023-01-29T12:26:30;10.90;;;4.78;;
43807;SDS011;29438;50.664;10.098;2023-01-29T12:31:43;12.40;;;4.57;;
43807;SDS011;29438;50.664;10.098;2023-01-29T12:37:24;9.07;;;4.00;;
43807;SDS011;29438;50.664;10.098;2023-01-29T12:40:15;11.20;;;4.32;;
43807;SDS011;29438;50.664;10.098;2023-01-29T12:42:44;12.43;;;4.30;;
43807;SDS011;29438;50.664;10.098;2023-01-29T12:45:16;9.88;;;4.10;;
43807;SDS011;29438;50.664;10.098;2023-01-29T12:47:46;11.52;;;4.47;;
43807;SDS011;29438;50.664;10.098;2023-01-29T12:50:29;15.40;;;5.38;;
43807;SDS011;29438;50.664;10.098;2023-01-29T12:55:48;13.20;;;4.88;;
43807;SDS011;29438;50.664;10.098;2023-01-29T13:00:59;11.85;;;4.53;;
43807;SDS011;29438;50.664;10.098;2023-01-29T13:03:35;10.38;;;3.85;;
43807;SDS011;29438;50.664;10.098;2023-01-29T13:06:11;9.82;;;4.43;;
43807;SDS011;29438;50.664;10.098;2023-01-29T13:08:41;12.88;;;4.82;;
43807;SDS011;29438;50.664;10.098;2023-01-29T13:14:43;12.25;;;5.15;;
43807;SDS011;29438;50.664;10.098;2023-01-29T13:17:38;14.43;;;5.88;;
43807;SDS011;29438;50.664;10.098;2023-01-29T13:22:47;9.77;;;4.32;;
43807;SDS011;29438;50.664;10.098;2023-01-29T13:25:16;12.43;;;4.90;;
43807;SDS011;29438;50.664;10.098;2023-01-29T13:27:43;13.35;;;5.07;;
43807;SDS011;29438;50.664;10.098;2023-01-29T13:30:24;11.27;;;4.45;;
43807;SDS011;29438;50.664;10.098;2023-01-29T13:32:53;12.55;;;4.95;;
43807;SDS011;29438;50.664;10.098;2023-01-29T13:35:32;10.50;;;4.60;;
43807;SDS011;29438;50.664;10.098;2023-01-29T13:37:59;12.93;;;4.63;;
43807;SDS011;29438;50.664;10.098;2023-01-29T13:40:25;12.73;;;4.43;;
43807;SDS011;29438;50.664;10.098;2023-01-29T13:42:53;11.93;;;5.00;;
43807;SDS011;29438;50.664;10.098;2023-01-29T13:45:24;11.68;;;4.40;;
43807;SDS011;29438;50.664;10.098;2023-01-29T13:48:16;11.15;;;4.80;;
43807;SDS011;29438;50.664;10.098;2023-01-29T13:50:50;12.85;;;4.80;;
43807;SDS011;29438;50.664;10.098;2023-01-29T13:53:26;12.63;;;4.90;;
43807;SDS011;29438;50.664;10.098;2023-01-29T13:55:54;10.45;;;4.35;;
43807;SDS011;29438;50.664;10.098;2023-01-29T13:59:01;9.23;;;4.03;;
43807;SDS011;29438;50.664;10.098;2023-01-29T14:04:21;12.75;;;4.78;;
43807;SDS011;29438;50.664;10.098;2023-01-29T14:06:58;13.88;;;5.15;;
43807;SDS011;29438;50.664;10.098;2023-01-29T14:12:02;13.18;;;5.00;;
43807;SDS011;29438;50.664;10.098;2023-01-29T14:17:13;11.20;;;4.50;;
43807;SDS011;29438;50.664;10.098;2023-01-29T14:19:49;8.98;;;4.03;;
43807;SDS011;29438;50.664;10.098;2023-01-29T14:22:26;11.90;;;4.63;;
43807;SDS011;29438;50.664;10.098;2023-01-29T14:24:54;10.52;;;4.10;;
43807;SDS011;29438;50.664;10.098;2023-01-29T14:27:24;12.32;;;4.97;;
43807;SDS011;29438;50.664;10.098;2023-01-29T14:29:50;14.23;;;5.15;;
43807;SDS011;29438;50.664;10.098;2023-01-29T14:32:22;13.55;;;5.00;;
43807;SDS011;29438;50.664;10.098;2023-01-29T14:34:50;13.75;;;5.35;;
43807;SDS011;29438;50.664;10.098;2023-01-29T14:37:27;10.25;;;4.38;;
43807;SDS011;29438;50.664;10.098;2023-01-29T14:39:54;10.52;;;4.28;;
43807;SDS011;29438;50.664;10.098;2023-01-29T14:42:30;12.60;;;4.47;;
43807;SDS011;29438;50.664;10.098;2023-01-29T14:45:28;15.13;;;5.03;;
43807;SDS011;29438;50.664;10.098;2023-01-29T14:50:41;10.15;;;4.57;;
43807;SDS011;29438;50.664;10.098;2023-01-29T14:56:04;16.20;;;6.90;;
43807;SDS011;29438;50.664;10.098;2023-01-29T14:59:02;10.07;;;4.25;;
43807;SDS011;29438;50.664;10.098;2023-01-29T15:01:38;12.90;;;4.70;;
43807;SDS011;29438;50.664;10.098;2023-01-29T15:09:28;11.15;;;4.10;;
43807;SDS011;29438;50.664;10.098;2023-01-29T15:12:04;15.27;;;5.00;;
43807;SDS011;29438;50.664;10.098;2023-01-29T15:17:21;14.75;;;5.75;;
43807;SDS011;29438;50.664;10.098;2023-01-29T15:20:00;15.38;;;5.93;;
43807;SDS011;29438;50.664;10.098;2023-01-29T15:22:26;13.60;;;5.40;;
43807;SDS011;29438;50.664;10.098;2023-01-29T15:25:08;12.55;;;4.88;;
43807;SDS011;29438;50.664;10.098;2023-01-29T15:27:42;12.77;;;4.45;;
43807;SDS011;29438;50.664;10.098;2023-01-29T15:30:16;13.65;;;5.07;;
43807;SDS011;29438;50.664;10.098;2023-01-29T15:32:47;17.98;;;6.53;;
43807;SDS011;29438;50.664;10.098;2023-01-29T15:35:26;20.83;;;7.13;;
43807;SDS011;29438;50.664;10.098;2023-01-29T15:38:13;17.38;;;6.85;;
43807;SDS011;29438;50.664;10.098;2023-01-29T15:40:53;14.57;;;6.20;;
43807;SDS011;29438;50.664;10.098;2023-01-29T15:43:30;15.88;;;6.20;;
43807;SDS011;29438;50.664;10.098;2023-01-29T15:46:11;17.10;;;5.97;;
43807;SDS011;29438;50.664;10.098;2023-01-29T15:48:46;12.30;;;4.57;;
43807;SDS011;29438;50.664;10.098;2023-01-29T15:51:14;18.50;;;6.30;;
43807;SDS011;29438;50.664;10.098;2023-01-29T15:53:49;15.38;;;5.93;;
43807;SDS011;29438;50.664;10.098;2023-01-29T15:56:20;14.88;;;5.72;;
43807;SDS011;29438;50.664;10.098;2023-01-29T15:58:52;14.75;;;5.80;;
43807;SDS011;29438;50.664;10.098;2023-01-29T16:01:18;20.90;;;8.27;;
43807;SDS011;29438;50.664;10.098;2023-01-29T16:03:44;14.70;;;6.28;;
43807;SDS011;29438;50.664;10.098;2023-01-29T16:06:13;16.73;;;6.50;;
43807;SDS011;29438;50.664;10.098;2023-01-29T16:08:39;15.23;;;6.40;;
43807;SDS011;29438;50.664;10.098;2023-01-29T16:11:06;22.35;;;9.40;;
43807;SDS011;29438;50.664;10.098;2023-01-29T16:13:34;17.85;;;7.20;;
43807;SDS011;29438;50.664;10.098;2023-01-29T16:16:04;14.05;;;5.95;;
43807;SDS011;29438;50.664;10.098;2023-01-29T16:18:43;18.83;;;7.90;;
43807;SDS011;29438;50.664;10.098;2023-01-29T16:21:16;22.63;;;7.85;;
43807;SDS011;29438;50.664;10.098;2023-01-29T16:23:51;19.35;;;7.38;;
43807;SDS011;29438;50.664;10.098;2023-01-29T16:26:32;17.33;;;7.53;;
43807;SDS011;29438;50.664;10.098;2023-01-29T16:29:04;20.02;;;7.93;;
43807;SDS011;29438;50.664;10.098;2023-01-29T16:31:31;21.60;;;7.93;;
43807;SDS011;29438;50.664;10.098;2023-01-29T16:34:04;40.67;;;13.23;;
43807;SDS011;29438;50.664;10.098;2023-01-29T16:36:42;37.85;;;11.27;;
43807;SDS011;29438;50.664;10.098;2023-01-29T16:39:14;28.75;;;10.48;;
43807;SDS011;29438;50.664;10.098;2023-01-29T16:47:33;31.10;;;11.20;;
43807;SDS011;29438;50.664;10.098;2023-01-29T16:53:01;34.00;;;11.15;;
43807;SDS011;29438;50.664;10.098;2023-01-29T16:55:40;23.48;;;8.63;;
43807;SDS011;29438;50.664;10.098;2023-01-29T16:58:15;17.90;;;7.22;;